sensor_id;sensor_type;location;lat;lon;timestamp;P1;durP1;ratioP1;P2;durP2;ratioP2
29254;SDS011;16277;48.890;2.306;2023-03-01T00:08:04;8.23;;;7.63;;
29254;SDS011;16277;48.890;2.306;2023-03-01T00:23:08;8.63;;;8.00;;
29254;SDS011;16277;48.890;2.306;2023-03-01T00:38:14;8.10;;;7.07;;
29254;SDS011;16277;48.890;2.306;2023-03-01T00:53:18;7.63;;;7.33;;
29254;SDS011;16277;48.890;2.306;2023-03-01T01:08:22;9.37;;;8.50;;
29254;SDS011;16277;48.890;2.306;2023-03-01T01:23:27;9.50;;;7.33;;
29254;SDS011;16277;48.890;2.306;2023-03-01T01:38:31;7.80;;;7.23;;
29254;SDS011;16277;48.890;2.306;2023-03-01T01:53:36;7.77;;;7.47;;
29254;SDS011;16277;48.890;2.306;2023-03-01T02:08:43;15.60;;;11.07;;
29254;SDS011;16277;48.890;2.306;2023-03-01T02:23:49;9.10;;;8.60;;
29254;SDS011;16277;48.890;2.306;2023-03-01T02:38:56;12.53;;;8.80;;
29254;SDS011;16277;48.890;2.306;2023-03-01T02:54:07;8.37;;;7.80;;
29254;SDS011;16277;48.890;2.306;2023-03-01T03:09:19;10.23;;;9.47;;
29254;SDS011;16277;48.890;2.306;2023-03-01T03:24:24;12.43;;;11.43;;
29254;SDS011;16277;48.890;2.306;2023-03-01T03:39:30;8.63;;;8.20;;
29254;SDS011;16277;48.890;2.306;2023-03-01T03:54:37;8.00;;;7.70;;
29254;SDS011;16277;48.890;2.306;2023-03-01T04:09:42;8.07;;;7.57;;
29254;SDS011;16277;48.890;2.306;2023-03-01T04:24:46;7.27;;;6.87;;
29254;SDS011;16277;48.890;2.306;2023-03-01T04:39:51;8.30;;;7.57;;
29254;SDS011;16277;48.890;2.306;2023-03-01T04:54:56;9.17;;;8.87;;
29254;SDS011;16277;48.890;2.306;2023-03-01T05:10:00;13.07;;;8.73;;
29254;SDS011;16277;48.890;2.306;2023-03-01T05:25:05;9.03;;;8.57;;
29254;SDS011;16277;48.890;2.306;2023-03-01T05:40:12;9.57;;;8.97;;
29254;SDS011;16277;48.890;2.306;2023-03-01T05:55:19;10.57;;;10.00;;
29254;SDS011;16277;48.890;2.306;2023-03-01T06:10:24;13.33;;;12.23;;
29254;SDS011;16277;48.890;2.306;2023-03-01T06:25:29;10.63;;;10.03;;
29254;SDS011;16277;48.890;2.306;2023-03-01T06:40:33;13.60;;;12.90;;
29254;SDS011;16277;48.890;2.306;2023-03-01T06:55:38;12.80;;;11.50;;
29254;SDS011;16277;48.890;2.306;2023-03-01T07:10:43;13.47;;;12.67;;
29254;SDS011;16277;48.890;2.306;2023-03-01T07:25:52;14.60;;;13.57;;
29254;SDS011;16277;48.890;2.306;2023-03-01T07:40:58;14.40;;;13.47;;
29254;SDS011;16277;48.890;2.306;2023-03-01T07:56:04;15.43;;;13.83;;
29254;SDS011;16277;48.890;2.306;2023-03-01T08:11:11;15.77;;;14.60;;
29254;SDS011;16277;48.890;2.306;2023-03-01T08:26:17;15.60;;;14.13;;
29254;SDS011;16277;48.890;2.306;2023-03-01T08:41:23;21.93;;;14.70;;
29254;SDS011;16277;48.890;2.306;2023-03-01T08:56:28;37.73;;;13.93;;
29254;SDS011;16277;48.890;2.306;2023-03-01T09:11:33;18.77;;;14.60;;
29254;SDS011;16277;48.890;2.306;2023-03-01T09:26:37;27.67;;;16.60;;
29254;SDS011;16277;48.890;2.306;2023-03-01T09:41:46;16.27;;;14.40;;
29254;SDS011;16277;48.890;2.306;2023-03-01T09:56:57;22.80;;;14.90;;
29254;SDS011;16277;48.890;2.306;2023-03-01T10:12:09;15.27;;;13.83;;
29254;SDS011;16277;48.890;2.306;2023-03-01T10:27:17;16.83;;;15.13;;
29254;SDS011;16277;48.890;2.306;2023-03-01T10:42:30;21.00;;;15.33;;
29254;SDS011;16277;48.890;2.306;2023-03-01T10:57:38;16.63;;;15.23;;
29254;SDS011;16277;48.890;2.306;2023-03-01T11:12:44;16.53;;;15.40;;
29254;SDS011;16277;48.890;2.306;2023-03-01T11:27:49;15.77;;;14.57;;
29254;SDS011;16277;48.890;2.306;2023-03-01T11:42:59;22.63;;;14.23;;
29254;SDS011;16277;48.890;2.306;2023-03-01T11:58:14;14.23;;;13.03;;
29254;SDS011;16277;48.890;2.306;2023-03-01T12:13:42;14.33;;;13.13;;
29254;SDS011;16277;48.890;2.306;2023-03-01T12:29:20;15.30;;;13.33;;
29254;SDS011;16277;48.890;2.306;2023-03-01T12:44:31;18.30;;;13.83;;
29254;SDS011;16277;48.890;2.306;2023-03-01T12:59:51;13.37;;;12.70;;
29254;SDS011;16277;48.890;2.306;2023-03-01T13:30:43;15.40;;;14.23;;
29254;SDS011;16277;48.890;2.306;2023-03-01T13:45:48;14.00;;;13.13;;
29254;SDS011;16277;48.890;2.306;2023-03-01T14:00:57;14.03;;;12.70;;
29254;SDS011;16277;48.890;2.306;2023-03-01T14:16:07;19.67;;;13.47;;
29254;SDS011;16277;48.890;2.306;2023-03-01T14:46:55;17.40;;;12.37;;
29254;SDS011;16277;48.890;2.306;2023-03-01T15:02:00;20.10;;;13.10;;
29254;SDS011;16277;48.890;2.306;2023-03-01T15:17:13;15.83;;;12.50;;
29254;SDS011;16277;48.890;2.306;2023-03-01T15:32:30;14.33;;;11.53;;
29254;SDS011;16277;48.890;2.306;2023-03-01T15:47:35;17.63;;;11.10;;
29254;SDS011;16277;48.890;2.306;2023-03-01T16:02:43;11.17;;;10.27;;
29254;SDS011;16277;48.890;2.306;2023-03-01T16:17:49;15.70;;;12.83;;
29254;SDS011;16277;48.890;2.306;2023-03-01T16:32:57;14.60;;;10.33;;
29254;SDS011;16277;48.890;2.306;2023-03-01T16:48:02;14.83;;;11.40;;
29254;SDS011;16277;48.890;2.306;2023-03-01T17:03:07;17.63;;;10.07;;
29254;SDS011;16277;48.890;2.306;2023-03-01T17:18:12;15.90;;;13.03;;
29254;SDS011;16277;48.890;2.306;2023-03-01T17:33:16;14.13;;;12.30;;
29254;SDS011;16277;48.890;2.306;2023-03-01T17:48:21;14.50;;;12.93;;
29254;SDS011;16277;48.890;2.306;2023-03-01T18:03:27;15.17;;;13.97;;
29254;SDS011;16277;48.890;2.306;2023-03-01T18:18:32;15.57;;;14.20;;
29254;SDS011;16277;48.890;2.306;2023-03-01T18:33:37;15.37;;;14.07;;
29254;SDS011;16277;48.890;2.306;2023-03-01T18:48:42;15.27;;;13.97;;
29254;SDS011;16277;48.890;2.306;2023-03-01T19:03:47;21.60;;;14.77;;
29254;SDS011;16277;48.890;2.306;2023-03-01T19:18:53;17.77;;;16.13;;
29254;SDS011;16277;48.890;2.306;2023-03-01T19:33:59;21.50;;;16.00;;
29254;SDS011;16277;48.890;2.306;2023-03-01T19:49:13;17.07;;;15.30;;
29254;SDS011;16277;48.890;2.306;2023-03-01T20:04:17;17.67;;;16.27;;
29254;SDS011;16277;48.890;2.306;2023-03-01T20:19:22;23.60;;;14.97;;
29254;SDS011;16277;48.890;2.306;2023-03-01T20:34:27;23.80;;;18.67;;
29254;SDS011;16277;48.890;2.306;2023-03-01T20:49:31;18.30;;;16.57;;
29254;SDS011;16277;48.890;2.306;2023-03-01T21:04:36;17.87;;;16.50;;
29254;SDS011;16277;48.890;2.306;2023-03-01T21:19:41;26.60;;;17.83;;
29254;SDS011;16277;48.890;2.306;2023-03-01T21:34:46;17.27;;;16.10;;
29254;SDS011;16277;48.890;2.306;2023-03-01T21:49:51;20.57;;;17.43;;
29254;SDS011;16277;48.890;2.306;2023-03-01T22:04:55;24.73;;;17.93;;
29254;SDS011;16277;48.890;2.306;2023-03-01T22:20:00;20.40;;;18.73;;
29254;SDS011;16277;48.890;2.306;2023-03-01T22:35:05;21.00;;;18.97;;
29254;SDS011;16277;48.890;2.306;2023-03-01T22:50:12;19.33;;;17.43;;
29254;SDS011;16277;48.890;2.306;2023-03-01T23:05:18;29.33;;;19.53;;
29254;SDS011;16277;48.890;2.306;2023-03-01T23:20:22;23.30;;;18.73;;
29254;SDS011;16277;48.890;2.306;2023-03-01T23:35:27;19.37;;;17.60;;
29254;SDS011;16277;48.890;2.306;2023-03-01T23:50:33;19.17;;;17.37;;
